Abbotsford, Wisconsin
Current Conditions -  °F | °C
As of 11:35 AM on Saturday 25 Oct 2014 (Local Time) from KMDZ Reporting Station
Clear Clear  
Wind Chill: 55°   Ceiling: Unl
Heat Index: 55°   Visibility: 10mi
Dew Point: 31°   Wind: 16mph
Humidity: 40%   Direction: 310°NW
Pressure: 29.91"   Gusts: 22mph
Location:  44.95°N, 90.32°W
Report Text: KMDZ 251635Z AUTO 31014G19KT 10SM CLR 13/00 A2991 RMK AO2 T01281004
Loading
Personal Weather Stations






























Interactive Weather Map
Tropical Storm Tracking
New forecast layout! Learn more

10-Day Weather Forecast

Advertisements
Track Severe Weather on mobile